createdAt,value
2023-03-29T00:01:03.728Z,17.76
2023-03-29T00:05:03.696Z,17.40
2023-03-29T00:09:03.816Z,17.42
2023-03-29T00:13:03.941Z,17.07
2023-03-29T00:17:04.135Z,16.76
2023-03-29T00:21:04.550Z,16.52
2023-03-29T00:25:04.420Z,16.56
2023-03-29T00:29:04.589Z,16.51
2023-03-29T00:33:04.796Z,16.25
2023-03-29T00:37:04.931Z,15.90
2023-03-29T00:41:05.167Z,15.72
2023-03-29T00:45:05.213Z,15.72
2023-03-29T00:49:05.349Z,15.74
2023-03-29T00:53:05.557Z,15.56
2023-03-29T00:57:05.725Z,14.95
2023-03-29T01:01:05.842Z,14.86
2023-03-29T01:05:06.034Z,14.73
2023-03-29T01:09:06.182Z,14.41
2023-03-29T01:13:06.320Z,14.15
2023-03-29T01:17:06.498Z,14.44
2023-03-29T01:21:06.743Z,14.01
2023-03-29T01:25:06.814Z,13.79
2023-03-29T01:29:07.000Z,13.89
2023-03-29T01:33:07.257Z,13.53
2023-03-29T01:37:07.341Z,13.40
2023-03-29T01:41:07.519Z,13.49
2023-03-29T01:45:07.693Z,12.97
2023-03-29T01:49:07.861Z,13.02
2023-03-29T01:53:08.066Z,12.62
2023-03-29T01:57:09.056Z,12.51
2023-03-29T02:01:08.465Z,12.41
2023-03-29T02:05:08.557Z,12.54
2023-03-29T02:09:08.711Z,12.34
2023-03-29T02:13:08.896Z,12.18
2023-03-29T02:17:09.102Z,11.81
2023-03-29T02:21:09.223Z,11.98
2023-03-29T02:25:09.446Z,11.83
2023-03-29T02:29:09.584Z,11.51
2023-03-29T02:33:09.823Z,11.68
2023-03-29T02:37:09.990Z,11.29
2023-03-29T02:41:10.174Z,11.57
2023-03-29T02:45:10.396Z,11.34
2023-03-29T02:49:10.567Z,11.22
2023-03-29T02:53:10.792Z,10.93
2023-03-29T02:57:11.065Z,10.92
2023-03-29T03:01:11.188Z,10.88
2023-03-29T03:05:11.384Z,10.66
2023-03-29T03:09:11.609Z,10.68
2023-03-29T03:13:11.812Z,10.60
2023-03-29T03:17:12.016Z,10.07
2023-03-29T03:21:12.205Z,10.24
2023-03-29T03:25:12.392Z,9.94
2023-03-29T03:29:12.618Z,9.92
2023-03-29T03:33:12.807Z,9.77
2023-03-29T03:37:13.015Z,9.86
2023-03-29T03:41:13.208Z,9.71
2023-03-29T03:45:13.447Z,9.67
2023-03-29T03:49:13.623Z,9.62
2023-03-29T03:53:13.809Z,9.56
2023-03-29T03:57:14.112Z,9.45
2023-03-29T04:01:14.294Z,9.25
2023-03-29T04:05:14.448Z,9.28
2023-03-29T04:09:14.678Z,8.93
2023-03-29T04:13:14.900Z,8.80
2023-03-29T04:17:15.136Z,8.95
2023-03-29T04:21:15.076Z,9.17
2023-03-29T04:25:15.051Z,8.96
2023-03-29T04:29:15.070Z,8.78
2023-03-29T04:33:14.969Z,8.55
2023-03-29T04:37:14.918Z,8.73
2023-03-29T04:41:14.920Z,8.62
2023-03-29T04:45:14.904Z,8.24
2023-03-29T04:49:14.794Z,8.38
2023-03-29T04:53:14.754Z,8.27
2023-03-29T04:57:14.826Z,8.10
2023-03-29T05:01:14.736Z,7.98
2023-03-29T05:05:14.687Z,8.08
2023-03-29T05:09:14.765Z,7.84
2023-03-29T05:13:14.608Z,7.83
2023-03-29T05:17:14.586Z,7.81
2023-03-29T05:21:15.112Z,7.88
2023-03-29T05:25:14.533Z,7.80
2023-03-29T05:29:14.449Z,7.59
2023-03-29T05:33:14.439Z,7.71
2023-03-29T05:37:14.441Z,7.74
2023-03-29T05:41:14.712Z,7.53
2023-03-29T05:45:14.765Z,8.13
2023-03-29T05:49:14.996Z,8.20
2023-03-29T05:53:15.625Z,8.17
2023-03-29T05:57:15.412Z,8.62
2023-03-29T06:01:15.656Z,8.64
2023-03-29T06:05:15.779Z,8.84
2023-03-29T06:09:16.148Z,9.43
2023-03-29T06:13:16.209Z,9.69
2023-03-29T06:17:16.431Z,9.86
2023-03-29T06:21:16.581Z,9.75
2023-03-29T06:25:16.797Z,9.74
2023-03-29T06:29:17.003Z,9.84
2023-03-29T06:33:17.221Z,9.79
2023-03-29T06:37:17.378Z,9.71
2023-03-29T06:41:17.583Z,9.81
2023-03-29T06:45:17.778Z,9.89
2023-03-29T06:49:18.161Z,10.28
2023-03-29T06:53:18.171Z,10.36
2023-03-29T06:57:18.433Z,10.26
2023-03-29T07:01:18.510Z,11.09
2023-03-29T07:05:18.885Z,11.27
2023-03-29T07:09:19.487Z,11.71
2023-03-29T07:13:19.669Z,12.29
2023-03-29T07:17:19.119Z,12.36
2023-03-29T07:21:19.208Z,12.98
2023-03-29T07:25:19.328Z,12.72
2023-03-29T07:29:19.719Z,13.14
2023-03-29T07:33:19.753Z,13.82
2023-03-29T07:37:19.709Z,13.98
2023-03-29T07:41:20.202Z,15.36
2023-03-29T07:45:20.206Z,18.05
2023-03-29T07:49:22.276Z,19.27
2023-03-29T07:53:19.871Z,24.42
2023-03-29T07:57:19.877Z,26.37
2023-03-29T08:01:20.255Z,29.68
2023-03-29T08:05:26.256Z,30.51
2023-03-29T08:09:20.998Z,31.88
2023-03-29T08:13:19.936Z,36.91
2023-03-29T08:17:19.903Z,37.88
2023-03-29T08:21:19.867Z,39.32
2023-03-29T08:25:19.830Z,42.17
2023-03-29T08:29:19.764Z,45.08
2023-03-29T08:33:19.801Z,47.33
2023-03-29T08:37:19.745Z,46.49
2023-03-29T08:41:19.736Z,47.50
2023-03-29T08:45:19.640Z,53.60
2023-03-29T08:49:19.716Z,65.19
2023-03-29T08:53:19.731Z,66.99
2023-03-29T08:57:19.627Z,77.41
2023-03-29T09:01:19.550Z,78.25
2023-03-29T09:05:19.573Z,83.58
2023-03-29T09:09:19.722Z,85.06
2023-03-29T09:13:20.319Z,83.19
2023-03-29T09:17:19.813Z,81.53
2023-03-29T09:21:19.850Z,83.05
2023-03-29T09:25:19.912Z,85.10
2023-03-29T09:29:20.217Z,90.95
2023-03-29T09:33:19.895Z,80.72
2023-03-29T09:37:19.937Z,51.98
2023-03-29T09:41:20.258Z,40.36
2023-03-29T09:45:20.242Z,28.92
2023-03-29T09:49:20.269Z,33.98
2023-03-29T09:53:20.246Z,19.35
2023-03-29T09:57:20.317Z,15.62
2023-03-29T10:01:20.392Z,18.62
2023-03-29T10:05:20.327Z,16.22
2023-03-29T10:09:20.387Z,15.04
2023-03-29T10:13:20.440Z,14.19
2023-03-29T10:17:20.582Z,12.51
2023-03-29T10:21:20.749Z,10.42
2023-03-29T10:25:20.911Z,10.40
2023-03-29T10:29:21.283Z,10.52
2023-03-29T10:33:21.319Z,9.75
2023-03-29T10:37:21.760Z,9.68
2023-03-29T10:41:21.291Z,6.03
2023-03-29T10:45:21.288Z,6.46
2023-03-29T10:49:21.154Z,7.16
2023-03-29T10:53:21.147Z,6.60
2023-03-29T10:57:22.860Z,7.41
2023-03-29T11:01:21.165Z,10.77
2023-03-29T11:05:20.996Z,10.29
2023-03-29T11:09:21.002Z,14.10
2023-03-29T11:13:20.954Z,14.43
2023-03-29T11:17:21.373Z,9.11
2023-03-29T11:21:20.906Z,11.42
2023-03-29T11:25:20.838Z,10.66
2023-03-29T11:29:20.837Z,10.65
2023-03-29T11:33:20.820Z,10.45
2023-03-29T11:37:20.749Z,10.98
2023-03-29T11:41:20.705Z,8.20
2023-03-29T11:45:20.641Z,5.11
2023-03-29T11:49:20.616Z,4.06
2023-03-29T11:53:20.823Z,3.24
2023-03-29T11:57:20.671Z,2.74
2023-03-29T12:01:20.641Z,2.12
2023-03-29T12:05:20.676Z,1.91
2023-03-29T12:09:20.750Z,1.58
2023-03-29T12:13:20.847Z,1.37
2023-03-29T12:17:20.917Z,1.24
2023-03-29T12:21:21.069Z,1.26
2023-03-29T12:25:22.790Z,1.10
2023-03-29T12:29:21.311Z,0.98
2023-03-29T12:33:21.837Z,0.93
2023-03-29T12:37:21.608Z,0.85
2023-03-29T12:41:21.793Z,0.78
2023-03-29T12:45:21.905Z,0.70
2023-03-29T12:49:22.043Z,0.77
2023-03-29T12:53:22.177Z,0.83
2023-03-29T12:57:22.393Z,0.88
2023-03-29T13:01:22.583Z,1.03
2023-03-29T13:05:22.576Z,1.03
2023-03-29T13:09:22.726Z,1.06
2023-03-29T13:13:22.841Z,1.22
2023-03-29T13:17:23.023Z,1.13
2023-03-29T13:21:23.120Z,0.86
2023-03-29T13:25:23.303Z,0.75
2023-03-29T13:29:23.489Z,1.24
2023-03-29T13:33:23.600Z,1.94
2023-03-29T13:37:23.735Z,5.21
2023-03-29T13:41:23.897Z,8.09
2023-03-29T13:45:23.997Z,7.79
2023-03-29T13:49:24.176Z,7.73
2023-03-29T13:53:24.324Z,6.90
2023-03-29T13:57:24.547Z,6.50
2023-03-29T14:01:24.689Z,6.54
2023-03-29T14:05:24.769Z,6.57
2023-03-29T14:09:24.920Z,6.43
2023-03-29T14:13:25.062Z,6.43
2023-03-29T14:17:25.252Z,6.54
2023-03-29T14:21:25.360Z,6.49
2023-03-29T14:25:25.482Z,6.61
2023-03-29T14:29:25.701Z,6.70
2023-03-29T14:33:25.807Z,6.81
2023-03-29T14:37:25.930Z,6.73
2023-03-29T14:41:26.039Z,6.90
2023-03-29T14:45:26.176Z,6.93
2023-03-29T14:49:26.300Z,6.92
2023-03-29T14:53:26.407Z,6.85
2023-03-29T14:57:26.721Z,6.73
2023-03-29T15:01:26.719Z,6.78
2023-03-29T15:05:26.802Z,6.83
2023-03-29T15:09:26.939Z,6.80
2023-03-29T15:13:27.045Z,6.66
2023-03-29T15:17:33.481Z,6.55
2023-03-29T15:21:28.106Z,6.56
2023-03-29T15:25:27.124Z,6.48
2023-03-29T15:29:27.006Z,6.34
2023-03-29T15:33:27.186Z,6.13
2023-03-29T15:37:27.094Z,6.08
2023-03-29T15:41:27.304Z,5.96
2023-03-29T15:45:27.314Z,6.04
2023-03-29T15:49:27.500Z,5.91
2023-03-29T15:53:27.563Z,5.83
2023-03-29T15:57:27.842Z,5.93
2023-03-29T16:01:27.848Z,5.59
2023-03-29T16:05:27.935Z,5.75
2023-03-29T16:09:28.068Z,5.75
2023-03-29T16:13:28.213Z,5.59
2023-03-29T16:17:28.364Z,5.47
2023-03-29T16:21:28.457Z,5.45
2023-03-29T16:25:28.585Z,5.50
2023-03-29T16:29:28.712Z,5.50
2023-03-29T16:33:28.843Z,5.35
2023-03-29T16:37:28.961Z,5.37
2023-03-29T16:41:29.077Z,5.24
2023-03-29T16:45:29.645Z,5.23
2023-03-29T16:49:29.327Z,5.16
2023-03-29T16:53:29.441Z,5.20
2023-03-29T16:57:29.676Z,5.17
2023-03-29T17:01:29.756Z,5.11
2023-03-29T17:05:29.858Z,5.07
2023-03-29T17:09:30.073Z,4.91
2023-03-29T17:13:30.076Z,4.83
2023-03-29T17:17:30.173Z,4.79
2023-03-29T17:21:30.271Z,4.82
2023-03-29T17:25:30.381Z,4.68
2023-03-29T17:29:30.504Z,4.70
2023-03-29T17:33:30.656Z,4.50
2023-03-29T17:37:30.737Z,4.55
2023-03-29T17:41:31.127Z,4.55
2023-03-29T17:45:30.968Z,4.48
2023-03-29T17:49:31.077Z,4.42
2023-03-29T17:53:31.210Z,4.39
2023-03-29T17:57:31.329Z,4.31
2023-03-29T18:01:31.451Z,4.28
2023-03-29T18:05:31.577Z,4.24
2023-03-29T18:09:31.681Z,4.20
2023-03-29T18:13:31.780Z,4.08
2023-03-29T18:17:31.956Z,4.02
2023-03-29T18:21:32.049Z,4.02
2023-03-29T18:25:32.165Z,3.91
2023-03-29T18:29:32.274Z,3.88
2023-03-29T18:33:32.409Z,3.83
2023-03-29T18:37:32.495Z,3.84
2023-03-29T18:41:32.666Z,3.80
2023-03-29T18:45:32.804Z,3.75
2023-03-29T18:49:32.930Z,3.69
2023-03-29T18:53:33.052Z,3.67
2023-03-29T18:57:33.215Z,3.61
2023-03-29T19:01:33.348Z,3.58
2023-03-29T19:05:33.447Z,3.50
2023-03-29T19:09:33.588Z,3.50
2023-03-29T19:13:33.719Z,3.41
2023-03-29T19:17:33.893Z,3.44
2023-03-29T19:21:34.022Z,3.34
2023-03-29T19:25:34.532Z,3.37
2023-03-29T19:29:34.341Z,3.23
2023-03-29T19:33:34.434Z,3.19
2023-03-29T19:37:34.654Z,3.21
2023-03-29T19:41:34.765Z,3.19
2023-03-29T19:45:34.887Z,3.10
2023-03-29T19:49:35.021Z,3.04
2023-03-29T19:53:38.399Z,3.02
2023-03-29T19:57:35.196Z,2.96
2023-03-29T20:01:35.141Z,3.01
2023-03-29T20:05:35.090Z,2.93
2023-03-29T20:09:35.522Z,2.90
2023-03-29T20:17:34.983Z,2.80
2023-03-29T20:21:35.153Z,2.80
2023-03-29T20:25:35.255Z,2.80
2023-03-29T20:29:35.422Z,2.78
2023-03-29T20:33:35.566Z,2.70
2023-03-29T20:37:35.723Z,2.71
2023-03-29T20:41:35.857Z,2.65
2023-03-29T20:45:46.369Z,2.65
2023-03-29T20:49:37.214Z,2.68
2023-03-29T20:53:35.959Z,2.62
2023-03-29T20:57:35.961Z,2.65
2023-03-29T21:01:36.107Z,2.55
2023-03-29T21:05:36.207Z,2.49
2023-03-29T21:09:36.376Z,2.55
2023-03-29T21:13:37.325Z,2.47
2023-03-29T21:17:36.644Z,2.44
2023-03-29T21:21:36.774Z,2.46
2023-03-29T21:25:36.899Z,2.40
2023-03-29T21:29:37.059Z,2.37
2023-03-29T21:33:37.187Z,2.34
2023-03-29T21:37:37.329Z,2.31
2023-03-29T21:41:37.507Z,2.35
2023-03-29T21:45:37.685Z,2.27
2023-03-29T21:49:37.788Z,2.26
2023-03-29T21:53:37.949Z,2.23
2023-03-29T21:57:38.119Z,2.20
2023-03-29T22:01:38.258Z,2.19
2023-03-29T22:05:38.409Z,2.18
2023-03-29T22:09:38.560Z,2.17
2023-03-29T22:13:38.709Z,2.13
2023-03-29T22:17:38.889Z,2.12
2023-03-29T22:21:38.956Z,2.02
2023-03-29T22:25:39.081Z,2.07
2023-03-29T22:29:39.218Z,2.04
2023-03-29T22:33:39.363Z,2.01
2023-03-29T22:37:39.497Z,2.01
2023-03-29T22:41:39.647Z,2.05
2023-03-29T22:45:39.779Z,1.95
2023-03-29T22:49:39.938Z,1.94
2023-03-29T22:53:40.062Z,1.91
2023-03-29T22:57:40.194Z,1.93
2023-03-29T23:01:40.357Z,1.92
2023-03-29T23:05:40.469Z,1.89
2023-03-29T23:09:40.610Z,1.88
2023-03-29T23:13:40.752Z,1.86
2023-03-29T23:17:40.941Z,1.84
2023-03-29T23:21:41.061Z,1.85
2023-03-29T23:25:41.166Z,1.82
2023-03-29T23:29:41.307Z,1.79
2023-03-29T23:33:41.439Z,1.79
2023-03-29T23:37:41.567Z,1.76
2023-03-29T23:41:41.753Z,1.76
2023-03-29T23:45:41.869Z,1.75
2023-03-29T23:49:42.050Z,1.76
2023-03-29T23:53:42.213Z,1.72
2023-03-29T23:57:42.275Z,1.72
